Time;durP1;ratioP1;P1;durP2;ratioP2;P2;SDS_P1;SDS_P2;PMS_P1;PMS_P2;Temp;Humidity;BMP_temperature;BMP_pressure;BME280_temperature;BME280_humidity;BME280_pressure;Samples;Min_cycle;Max_cycle;Signal;HPM_P1;HPM_P2
2023/09/25 00:00:31;;;;;;;2.70;1.60;;;;;;;16.72;74.15;99841.31;5101374;27;20058;-51
2023/09/25 00:02:59;;;;;;;4.03;1.17;;;;;;;16.67;74.72;99839.69;5119319;27;20127;-47
2023/09/25 00:05:28;;;;;;;5.53;1.67;;;;;;;16.70;74.13;99844.84;5101801;27;20051;-51
2023/09/25 00:07:55;;;;;;;4.38;1.02;;;;;;;16.72;74.67;99838.69;5103193;27;20054;-52
2023/09/25 00:10:23;;;;;;;4.72;1.15;;;;;;;16.70;74.79;99844.84;5118817;27;20043;-48
2023/09/25 00:12:49;;;;;;;1.70;1.00;;;;;;;16.67;75.17;99828.38;5100669;27;20035;-47
2023/09/25 00:15:16;;;;;;;4.97;1.23;;;;;;;16.67;74.62;99839.69;5099611;27;20057;-48
2023/09/25 00:17:43;;;;;;;2.40;1.10;;;;;;;16.65;75.71;99846.72;5121337;27;20070;-44
2023/09/25 00:20:10;;;;;;;2.45;0.95;;;;;;;16.68;75.67;99830.94;5121390;27;20412;-48
2023/09/25 00:22:38;;;;;;;2.55;1.08;;;;;;;16.68;75.19;99836.16;5121278;27;20047;-52
2023/09/25 00:25:06;;;;;;;4.93;1.55;;;;;;;16.65;75.55;99851.94;5130131;27;20050;-47
2023/09/25 00:27:33;;;;;;;2.97;1.08;;;;;;;16.68;75.26;99861.44;5120629;27;20500;-48
2023/09/25 00:30:03;;;;;;;3.53;1.10;;;;;;;16.70;75.77;99868.38;5109829;27;20062;-49
2023/09/25 00:32:30;;;;;;;4.38;1.25;;;;;;;16.72;75.68;99873.53;5104439;27;20039;-49
2023/09/25 00:34:57;;;;;;;2.83;1.25;;;;;;;16.76;75.69;99876.91;5124332;27;20054;-48
2023/09/25 00:37:23;;;;;;;2.72;1.05;;;;;;;16.78;75.04;99875.09;5121010;27;20043;-49
2023/09/25 00:39:50;;;;;;;3.50;1.15;;;;;;;16.82;75.50;99879.34;5125135;27;20108;-48
2023/09/25 00:42:17;;;;;;;4.28;1.60;;;;;;;16.81;75.24;99867.16;5126842;27;20042;-48
2023/09/25 00:44:43;;;;;;;2.58;1.00;;;;;;;16.84;74.89;99864.44;5124242;27;20570;-48
2023/09/25 00:47:10;;;;;;;3.30;1.15;;;;;;;16.84;75.60;99861.84;5127449;27;20050;-48
2023/09/25 00:49:37;;;;;;;2.15;0.73;;;;;;;16.83;74.96;99870.59;5128111;27;20043;-51
2023/09/25 00:52:04;;;;;;;2.65;1.10;;;;;;;16.84;75.30;99877.53;5131607;27;20057;-49
2023/09/25 00:54:33;;;;;;;3.28;1.00;;;;;;;16.84;76.16;99885.38;5128354;27;20042;-46
2023/09/25 00:57:08;;;;;;;2.47;0.93;;;;;;;16.85;76.19;99883.63;5129225;27;20736;-49
2023/09/25 00:59:38;;;;;;;2.58;0.85;;;;;;;16.86;75.91;99880.09;5123398;27;20130;-46
2023/09/25 01:02:06;;;;;;;4.28;1.15;;;;;;;16.84;75.54;99874.91;5126270;27;20130;-49
2023/09/25 01:04:33;;;;;;;2.42;1.42;;;;;;;16.83;76.42;99881.06;5127961;27;20043;-48
2023/09/25 01:07:01;;;;;;;3.72;1.02;;;;;;;16.79;76.56;99874.22;5128974;27;20504;-48
2023/09/25 01:09:28;;;;;;;4.32;0.85;;;;;;;16.77;76.11;99876.00;5118161;27;20675;-46
2023/09/25 01:11:54;;;;;;;2.97;0.90;;;;;;;16.74;76.17;99882.19;5121836;27;20128;-51
2023/09/25 01:14:21;;;;;;;2.38;1.20;;;;;;;16.75;76.34;99880.44;5123519;27;20046;-49
2023/09/25 01:16:48;;;;;;;2.40;0.70;;;;;;;16.76;76.54;99895.22;5117311;27;20043;-47
2023/09/25 01:19:15;;;;;;;3.03;0.90;;;;;;;16.77;76.70;99900.41;5116345;27;20082;-47
2023/09/25 01:21:46;;;;;;;2.80;1.10;;;;;;;16.78;76.82;99893.41;5118091;27;20740;-49
2023/09/25 01:24:13;;;;;;;1.67;0.63;;;;;;;16.78;76.31;99896.03;5115089;27;20043;-46
2023/09/25 01:26:40;;;;;;;5.38;1.10;;;;;;;16.76;76.64;99900.47;5118005;27;20804;-50
2023/09/25 01:29:06;;;;;;;3.33;1.60;;;;;;;16.76;76.35;99900.47;5121787;27;20504;-48
2023/09/25 01:31:33;;;;;;;3.83;1.30;;;;;;;16.75;75.57;99906.59;5123169;27;20047;-49
2023/09/25 01:34:00;;;;;;;3.00;1.15;;;;;;;16.72;76.15;99904.06;5114635;27;20099;-48
2023/09/25 01:36:27;;;;;;;2.45;0.80;;;;;;;16.70;76.29;99906.72;5121438;27;20706;-46
2023/09/25 01:38:53;;;;;;;2.05;0.68;;;;;;;16.67;76.75;99902.47;5117995;27;20539;-46
2023/09/25 01:41:20;;;;;;;1.98;0.70;;;;;;;16.65;76.88;99909.47;5126048;27;20047;-47
2023/09/25 01:43:47;;;;;;;3.70;2.20;;;;;;;16.63;76.54;99911.28;5122356;27;20145;-53
2023/09/25 01:46:13;;;;;;;3.80;1.00;;;;;;;16.62;76.41;99913.94;5118804;27;20126;-46
2023/09/25 01:48:40;;;;;;;2.85;0.90;;;;;;;16.61;77.00;99931.38;5125412;27;20655;-46
2023/09/25 01:51:09;;;;;;;4.53;0.80;;;;;;;16.62;76.32;99925.25;5126510;27;20051;-47
2023/09/25 01:53:36;;;;;;;3.20;1.02;;;;;;;16.65;76.35;99934.78;5126935;27;20134;-49
2023/09/25 01:56:12;;;;;;;2.15;0.93;;;;;;;16.62;76.66;99937.47;5104523;27;20051;-48
2023/09/25 01:58:41;;;;;;;;;;;;;;;16.49;76.49;99939.59;5129707;27;20477;-48
2023/09/25 02:01:08;;;;;;;2.65;0.82;;;;;;;16.62;76.03;99940.94;5122335;27;19919;-52
2023/09/25 02:03:35;;;;;;;3.25;0.98;;;;;;;16.62;76.67;99946.16;5121291;27;20047;-48
2023/09/25 02:06:03;;;;;;;3.10;1.00;;;;;;;16.62;76.40;99951.41;5124777;27;20103;-49
2023/09/25 02:08:31;;;;;;;0.93;0.30;;;;;;;16.61;75.96;99952.31;5110427;27;20046;-48
2023/09/25 02:10:58;;;;;;;1.42;0.90;;;;;;;16.62;76.29;99966.25;5116379;27;20076;-50
2023/09/25 02:13:25;;;;;;;1.15;0.60;;;;;;;16.60;75.98;99968.91;5106648;27;20522;-49
2023/09/25 02:15:51;;;;;;;2.88;1.08;;;;;;;16.59;75.99;99975.03;5122752;27;20050;-45
2023/09/25 02:18:18;;;;;;;1.27;0.80;;;;;;;16.57;76.49;99963.75;5123175;27;20663;-49
2023/09/25 02:20:46;;;;;;;7.53;1.02;;;;;;;16.57;76.00;99974.22;5126655;27;20566;-49
2023/09/25 02:23:12;;;;;;;2.50;0.90;;;;;;;16.54;76.46;99966.47;5124576;27;20063;-51
2023/09/25 02:25:39;;;;;;;2.55;0.88;;;;;;;16.54;76.20;99966.47;5120185;27;20083;-47
2023/09/25 02:28:06;;;;;;;1.95;0.70;;;;;;;16.52;76.85;99955.19;5118826;27;20049;-52
2023/09/25 02:30:33;;;;;;;3.35;1.48;;;;;;;16.49;76.88;99955.28;5116686;27;20047;-49
2023/09/25 02:33:00;;;;;;;3.05;0.85;;;;;;;16.48;76.28;99962.25;5120315;27;20104;-48
2023/09/25 02:35:27;;;;;;;3.58;0.70;;;;;;;16.45;76.24;99955.38;5116521;27;20051;-48
2023/09/25 02:37:54;;;;;;;2.28;0.73;;;;;;;16.43;76.29;99970.25;5117814;27;20055;-51
2023/09/25 02:40:21;;;;;;;1.88;0.77;;;;;;;16.42;76.46;99971.13;5119481;27;20539;-44
2023/09/25 02:42:47;;;;;;;6.28;1.25;;;;;;;16.41;76.20;99977.28;5119185;27;21671;-47
2023/09/25 02:45:15;;;;;;;2.80;0.68;;;;;;;16.39;76.24;99979.09;5119489;27;20074;-48
2023/09/25 02:47:43;;;;;;;2.88;0.68;;;;;;;16.39;77.00;99986.94;5106220;27;20736;-44
2023/09/25 02:50:10;;;;;;;2.95;0.90;;;;;;;16.37;76.77;99983.47;5131325;27;20063;-52
2023/09/25 02:52:37;;;;;;;5.07;1.50;;;;;;;16.38;76.48;99985.19;5129456;27;20399;-47
2023/09/25 02:55:04;;;;;;;2.55;0.65;;;;;;;16.37;76.55;99978.25;5130905;27;20061;-50
2023/09/25 02:57:31;;;;;;;3.80;1.05;;;;;;;16.35;76.78;99985.28;5126349;27;20050;-46
2023/09/25 02:59:58;;;;;;;2.75;0.90;;;;;;;16.33;76.31;99987.09;5132014;27;20082;-50
2023/09/25 03:02:25;;;;;;;3.35;0.65;;;;;;;16.31;76.76;99989.75;5126037;27;20047;-51
2023/09/25 03:04:53;;;;;;;3.90;0.52;;;;;;;16.29;76.49;99995.91;5128099;27;20112;-50
2023/09/25 03:07:21;;;;;;;6.90;1.00;;;;;;;16.27;76.70;100002.91;5109074;27;20071;-51
2023/09/25 03:09:48;;;;;;;4.20;0.80;;;;;;;16.25;76.51;100009.97;5128728;27;20050;-49
2023/09/25 03:12:14;;;;;;;3.88;0.80;;;;;;;16.24;76.47;100013.47;5123289;27;20585;-53
2023/09/25 03:14:42;;;;;;;3.65;0.88;;;;;;;16.22;76.42;100002.19;5126638;27;20035;-49
2023/09/25 03:17:09;;;;;;;2.92;0.95;;;;;;;16.19;76.63;100011.81;5125466;27;20046;-45
2023/09/25 03:19:36;;;;;;;1.95;0.80;;;;;;;16.17;76.28;100018.84;5129204;27;20047;-50
2023/09/25 03:22:02;;;;;;;4.75;1.67;;;;;;;16.16;75.71;100013.66;5128142;27;20104;-50
2023/09/25 03:24:30;;;;;;;6.80;0.95;;;;;;;16.15;75.95;100025.88;5121691;27;20043;-47
2023/09/25 03:26:57;;;;;;;12.52;1.75;;;;;;;16.13;76.23;100018.97;5129015;27;20047;-52
2023/09/25 03:29:23;;;;;;;9.02;1.77;;;;;;;16.11;76.33;100021.63;5128128;27;20065;-48
2023/09/25 03:31:50;;;;;;;3.78;0.88;;;;;;;16.09;76.25;100019.94;5130230;27;20539;-48
2023/09/25 03:34:17;;;;;;;3.17;0.82;;;;;;;16.09;76.28;100028.66;5127277;27;21145;-46
2023/09/25 03:36:43;;;;;;;4.10;1.08;;;;;;;16.08;75.47;100034.78;5129264;27;20491;-52
2023/09/25 03:39:10;;;;;;;4.18;0.70;;;;;;;16.09;76.41;100035.63;5127024;27;20499;-48
2023/09/25 03:41:37;;;;;;;3.13;1.13;;;;;;;16.08;76.00;100042.63;5123812;27;20557;-49
2023/09/25 03:44:04;;;;;;;5.00;0.60;;;;;;;16.06;76.12;100047.03;5120707;27;20495;-49
2023/09/25 03:46:31;;;;;;;6.45;0.65;;;;;;;16.03;76.22;100047.09;5123185;27;20055;-48
2023/09/25 03:49:01;;;;;;;5.30;1.17;;;;;;;16.02;76.46;100050.59;5120376;27;20150;-50
2023/09/25 03:51:28;;;;;;;6.95;0.77;;;;;;;15.99;76.09;100042.84;5119584;27;20070;-52
2023/09/25 03:53:55;;;;;;;3.42;1.58;;;;;;;15.97;76.04;100052.50;5117550;27;20063;-52
2023/09/25 03:56:21;;;;;;;3.97;0.80;;;;;;;15.93;75.96;100055.16;5119251;27;20043;-49
2023/09/25 03:58:48;;;;;;;4.13;0.70;;;;;;;15.91;76.04;100049.09;5120137;27;20055;-49
2023/09/25 04:01:15;;;;;;;3.10;0.80;;;;;;;15.90;76.33;100052.59;5116059;27;20570;-48
2023/09/25 04:03:42;;;;;;;2.17;0.77;;;;;;;15.88;76.20;100063.97;5120248;27;20678;-46
2023/09/25 04:06:09;;;;;;;3.58;0.90;;;;;;;15.85;76.40;100057.09;5123233;27;21801;-48
2023/09/25 04:08:36;;;;;;;2.70;0.80;;;;;;;15.85;76.34;100064.06;5120000;27;20054;-50
2023/09/25 04:11:03;;;;;;;4.13;1.10;;;;;;;15.81;76.34;100060.69;5119489;27;20691;-51
2023/09/25 04:13:31;;;;;;;6.60;1.38;;;;;;;15.79;76.14;100059.84;5123124;27;20145;-54
2023/09/25 04:15:58;;;;;;;3.38;0.98;;;;;;;15.76;76.01;100070.34;5114765;27;20043;-51
2023/09/25 04:18:24;;;;;;;6.22;1.25;;;;;;;15.73;76.28;100065.19;5127051;27;20039;-45
2023/09/25 04:20:51;;;;;;;5.38;1.45;;;;;;;15.70;76.51;100075.75;5120206;27;20619;-48
2023/09/25 04:23:19;;;;;;;4.88;0.90;;;;;;;15.68;76.11;100071.38;5122665;27;20488;-49
2023/09/25 04:25:53;;;;;;;7.05;1.10;;;;;;;15.65;75.88;100070.63;5120320;27;20737;-53
2023/09/25 04:28:20;;;;;;;6.50;1.48;;;;;;;15.64;76.17;100076.75;5120092;27;20051;-45
2023/09/25 04:30:47;;;;;;;4.30;0.88;;;;;;;15.61;76.17;100077.69;5120576;27;20047;-51
2023/09/25 04:33:14;;;;;;;6.68;1.20;;;;;;;15.60;75.95;100082.94;5119732;27;20047;-50
2023/09/25 04:35:41;;;;;;;4.82;1.50;;;;;;;15.57;75.99;100086.44;5117812;27;20047;-52
2023/09/25 04:38:08;;;;;;;4.90;0.90;;;;;;;15.55;76.24;100088.25;5120034;27;20047;-45
2023/09/25 04:40:34;;;;;;;5.00;0.80;;;;;;;15.52;76.21;100090.91;5122205;27;20043;-53
2023/09/25 04:43:01;;;;;;;7.63;1.20;;;;;;;15.48;75.92;100091.88;5123983;27;20050;-50
2023/09/25 04:45:29;;;;;;;7.47;0.98;;;;;;;15.46;75.85;100088.44;5119680;27;20078;-50
2023/09/25 04:47:57;;;;;;;9.15;1.20;;;;;;;15.42;76.03;100088.53;5118991;27;20047;-48
2023/09/25 04:50:24;;;;;;;6.72;1.48;;;;;;;15.40;76.28;100090.31;5127045;27;20086;-53
2023/09/25 04:52:50;;;;;;;5.05;0.95;;;;;;;15.36;75.89;100088.66;5126543;27;20046;-51
2023/09/25 04:55:17;;;;;;;7.60;1.38;;;;;;;15.34;76.15;100094.81;5127605;27;20408;-50
2023/09/25 04:57:46;;;;;;;8.15;1.20;;;;;;;15.32;76.05;100088.75;5127128;27;20043;-49
2023/09/25 05:00:32;;;;;;;5.45;1.23;;;;;;;15.29;76.42;100097.50;5122394;27;20049;-48
2023/09/25 05:02:59;;;;;;;6.32;2.05;;;;;;;15.26;76.13;100103.66;5120802;27;20047;-51
2023/09/25 05:05:27;;;;;;;12.02;1.40;;;;;;;15.26;75.69;100102.78;5106304;27;20070;-49
2023/09/25 05:07:55;;;;;;;6.70;1.40;;;;;;;15.23;75.55;100095.88;5121629;27;20051;-53
2023/09/25 05:10:25;;;;;;;4.60;1.20;;;;;;;15.18;75.75;100097.75;5092039;27;20046;-48
2023/09/25 05:12:54;;;;;;;9.73;1.10;;;;;;;15.18;76.10;100109.91;5104942;27;20100;-53
2023/09/25 05:15:21;;;;;;;6.75;1.52;;;;;;;15.13;76.28;100108.25;5126195;27;20035;-44
2023/09/25 05:17:49;;;;;;;6.30;2.35;;;;;;;15.10;75.74;100110.94;5125311;27;20043;-48
2023/09/25 05:20:18;;;;;;;10.43;1.42;;;;;;;15.08;75.92;100107.50;5119052;27;20123;-50
2023/09/25 05:22:48;;;;;;;6.28;1.20;;;;;;;15.05;76.16;100115.38;5109780;27;20039;-47
2023/09/25 05:25:16;;;;;;;8.43;1.70;;;;;;;15.01;76.12;100117.22;5105467;27;20044;-48
2023/09/25 05:27:45;;;;;;;9.57;1.20;;;;;;;14.98;75.85;100119.00;5117879;27;20055;-46
2023/09/25 05:30:13;;;;;;;8.57;1.38;;;;;;;14.94;75.79;100118.22;5122153;27;20070;-53
2023/09/25 05:32:43;;;;;;;8.50;1.08;;;;;;;14.91;75.77;100118.28;5125745;27;20675;-52
2023/09/25 05:35:10;;;;;;;8.45;1.70;;;;;;;14.87;76.00;100112.28;5117583;27;20039;-47
2023/09/25 05:37:37;;;;;;;12.75;1.00;;;;;;;14.84;75.82;100117.53;5114064;27;20054;-48
2023/09/25 05:40:05;;;;;;;5.80;1.05;;;;;;;14.81;75.78;100128.03;5117753;27;20046;-50
2023/09/25 05:42:32;;;;;;;7.28;0.85;;;;;;;14.77;75.54;100127.22;5099908;27;20050;-48
2023/09/25 05:44:59;;;;;;;7.38;1.48;;;;;;;14.75;75.21;100135.91;5099813;27;20051;-45
2023/09/25 05:47:25;;;;;;;3.17;0.88;;;;;;;14.71;75.47;100139.47;5118464;27;20047;-49
2023/09/25 05:49:52;;;;;;;4.40;1.38;;;;;;;14.68;75.16;100145.59;5117484;27;20051;-50
2023/09/25 05:52:19;;;;;;;7.15;1.27;;;;;;;14.65;75.66;100156.97;5120481;27;20047;-47
2023/09/25 05:54:45;;;;;;;5.35;1.35;;;;;;;14.62;75.69;100170.03;5114838;27;20054;-45
2023/09/25 05:57:12;;;;;;;5.10;0.93;;;;;;;14.61;75.70;100163.13;5118172;27;20566;-48
2023/09/25 05:59:39;;;;;;;7.60;1.55;;;;;;;14.59;75.40;100180.50;5120445;27;20067;-46
2023/09/25 06:02:07;;;;;;;7.18;1.55;;;;;;;14.57;75.38;100177.09;5118334;27;20397;-50
2023/09/25 06:04:37;;;;;;;6.00;1.52;;;;;;;14.54;75.58;100179.75;5115491;27;20062;-50
2023/09/25 06:07:04;;;;;;;5.90;1.63;;;;;;;14.53;75.79;100181.47;5118156;27;20130;-44
2023/09/25 06:09:32;;;;;;;6.57;1.08;;;;;;;14.52;75.92;100184.09;5116624;27;20111;-50
2023/09/25 06:12:00;;;;;;;4.35;1.23;;;;;;;14.51;75.92;100188.47;5125624;27;20053;-46
2023/09/25 06:14:28;;;;;;;7.60;1.45;;;;;;;14.50;75.38;100196.31;5117399;27;20495;-47
2023/09/25 06:16:57;;;;;;;6.07;1.13;;;;;;;14.49;75.77;100194.59;5117218;27;20112;-48
2023/09/25 06:19:24;;;;;;;5.90;1.42;;;;;;;14.48;75.85;100204.16;5117450;27;20067;-48
2023/09/25 06:21:52;;;;;;;7.18;1.38;;;;;;;14.51;75.67;100198.03;5114615;27;20066;-50
2023/09/25 06:24:21;;;;;;;10.30;1.63;;;;;;;14.52;75.96;100204.97;5116501;27;20074;-45
2023/09/25 06:26:49;;;;;;;7.43;1.23;;;;;;;14.51;75.74;100192.81;5120408;27;20504;-48
2023/09/25 06:29:16;;;;;;;10.95;1.75;;;;;;;14.53;75.89;100196.28;5101741;27;20039;-50
2023/09/25 06:31:43;;;;;;;15.40;1.52;;;;;;;14.54;75.99;100203.19;5114895;27;20095;-49
2023/09/25 06:34:26;;;;;;;9.70;1.35;;;;;;;14.56;76.20;100201.41;5116776;27;20060;-50
2023/09/25 06:36:53;;;;;;;4.22;1.40;;;;;;;14.59;76.24;100206.59;5114436;27;20127;-50
2023/09/25 06:39:21;;;;;;;8.57;1.30;;;;;;;14.62;76.20;100206.53;5119254;27;20102;-47
2023/09/25 06:41:48;;;;;;;4.72;1.42;;;;;;;14.65;76.46;100216.03;5123763;27;20468;-48
2023/09/25 06:44:15;;;;;;;5.22;1.00;;;;;;;14.69;75.97;100206.44;5125316;27;20043;-50
2023/09/25 06:46:43;;;;;;;5.10;1.25;;;;;;;14.73;75.87;100213.31;5115060;27;20051;-49
2023/09/25 06:49:10;;;;;;;5.95;1.30;;;;;;;14.78;75.66;100221.94;5113738;27;20051;-52
2023/09/25 06:51:37;;;;;;;6.75;1.50;;;;;;;14.83;76.01;100230.53;5117955;27;20044;-49
2023/09/25 06:54:04;;;;;;;7.13;1.15;;;;;;;14.86;75.87;100225.28;5098520;28;20085;-50
2023/09/25 06:56:31;;;;;;;6.85;1.10;;;;;;;14.92;76.20;100233.91;5112968;27;20074;-53
2023/09/25 06:58:57;;;;;;;4.65;1.20;;;;;;;14.98;75.94;100225.94;5111558;27;20039;-49
2023/09/25 07:01:24;;;;;;;8.45;1.63;;;;;;;15.04;76.33;100234.50;5112223;27;20047;-46
2023/09/25 07:03:51;;;;;;;12.23;1.92;;;;;;;15.11;76.22;100244.84;5113883;27;20124;-53
2023/09/25 07:06:19;;;;;;;9.65;1.45;;;;;;;15.19;75.94;100252.53;5118992;27;20093;-51
2023/09/25 07:08:46;;;;;;;4.70;0.93;;;;;;;15.25;75.71;100249.78;5116758;27;20051;-52
2023/09/25 07:11:17;;;;;;;6.93;1.58;;;;;;;15.33;75.93;100252.28;5113514;27;20043;-48
2023/09/25 07:13:44;;;;;;;4.97;1.27;;;;;;;15.39;75.95;100250.41;5099203;27;20546;-49
2023/09/25 07:16:10;;;;;;;7.85;1.55;;;;;;;15.49;75.95;100263.25;5098059;28;20050;-51
2023/09/25 07:18:38;;;;;;;7.13;1.30;;;;;;;15.94;75.07;100252.75;5121267;27;20504;-47
2023/09/25 07:21:05;;;;;;;3.80;0.88;;;;;;;16.39;74.63;100257.91;5119634;27;20065;-46
2023/09/25 07:23:32;;;;;;;5.63;1.00;;;;;;;16.79;73.57;100256.06;5122602;27;20051;-49
2023/09/25 07:26:02;;;;;;;6.13;1.20;;;;;;;17.31;73.23;100269.56;5118851;27;20061;-49
2023/09/25 07:28:29;;;;;;;9.80;1.40;;;;;;;17.96;71.62;100265.97;5119044;27;20111;-53
2023/09/25 07:30:58;;;;;;;6.30;1.00;;;;;;;18.59;70.14;100259.69;5119075;27;20510;-51
2023/09/25 07:33:25;;;;;;;4.75;1.63;;;;;;;19.22;68.13;100277.72;5119424;27;20408;-52
2023/09/25 07:35:53;;;;;;;7.63;1.63;;;;;;;19.71;67.43;100270.75;5125092;27;20043;-46
2023/09/25 07:38:19;;;;;;;8.90;1.27;;;;;;;20.14;65.63;100270.91;5128951;27;20043;-53
2023/09/25 07:40:47;;;;;;;5.18;1.00;;;;;;;20.46;65.36;100265.28;5125804;27;20047;-49
2023/09/25 07:43:28;;;;;;;8.45;1.15;;;;;;;20.59;65.27;100269.09;5120751;27;20048;-49
2023/09/25 07:46:08;;;;;;;6.10;1.52;;;;;;;20.84;65.11;100254.06;5119165;27;20043;-48
2023/09/25 07:48:39;;;;;;;6.85;1.40;;;;;;;21.31;64.50;100256.44;5107622;27;20081;-50
2023/09/25 07:51:08;;;;;;;6.20;1.42;;;;;;;21.94;63.48;100253.66;5125283;27;20039;-48
2023/09/25 07:53:35;;;;;;;7.65;1.20;;;;;;;22.53;62.19;100268.44;5124118;27;20047;-51
2023/09/25 07:56:03;;;;;;;9.45;1.60;;;;;;;23.03;60.74;100266.84;5129049;27;20043;-47
2023/09/25 07:58:29;;;;;;;7.13;2.15;;;;;;;23.54;60.28;100273.91;5121277;27;20477;-47
2023/09/25 08:01:04;;;;;;;12.85;1.35;;;;;;;23.98;58.36;100268.94;5126291;27;20053;-49
2023/09/25 08:03:31;;;;;;;9.85;1.33;;;;;;;24.33;57.08;100271.41;5106514;27;20572;-53
2023/09/25 08:06:03;;;;;;;9.25;1.50;;;;;;;24.67;56.93;100270.38;5122208;27;20066;-49
2023/09/25 08:08:29;;;;;;;7.70;1.65;;;;;;;25.09;56.06;100279.38;5122529;27;20043;-51
2023/09/25 08:10:56;;;;;;;6.20;1.25;;;;;;;25.41;54.91;100289.84;5121616;27;20174;-48
2023/09/25 08:13:23;;;;;;;9.52;1.55;;;;;;;25.70;53.85;100293.47;5118875;27;20074;-50
2023/09/25 08:15:49;;;;;;;6.00;1.30;;;;;;;25.83;52.54;100289.06;5122891;27;20043;-53
2023/09/25 08:18:16;;;;;;;8.02;1.30;;;;;;;26.18;53.50;100291.25;5127305;27;20035;-53
2023/09/25 08:20:43;;;;;;;5.57;1.30;;;;;;;26.52;52.62;100293.56;5111163;27;20043;-48
2023/09/25 08:23:10;;;;;;;6.93;1.45;;;;;;;26.90;51.65;100294.56;5121434;27;20050;-47
2023/09/25 08:25:36;;;;;;;9.70;1.60;;;;;;;27.25;51.12;100294.94;5124091;27;20047;-46
2023/09/25 08:28:03;;;;;;;6.03;1.23;;;;;;;27.52;50.50;100299.28;5124949;27;20047;-49
2023/09/25 08:30:31;;;;;;;9.43;1.40;;;;;;;27.73;49.19;100298.75;5121686;27;20051;-48
2023/09/25 08:32:58;;;;;;;6.80;1.85;;;;;;;27.84;48.72;100305.00;5124416;27;20051;-55
2023/09/25 08:35:25;;;;;;;18.15;3.30;;;;;;;27.91;47.66;100300.09;5124439;27;20043;-47
2023/09/25 08:37:52;;;;;;;10.00;1.85;;;;;;;27.99;48.04;100306.66;5125562;27;20051;-45
2023/09/25 08:40:19;;;;;;;7.80;2.13;;;;;;;28.23;47.59;100310.19;5117197;27;20051;-48
2023/09/25 08:42:46;;;;;;;8.15;2.05;;;;;;;28.45;46.14;100311.31;5118554;27;20050;-48
2023/09/25 08:45:15;;;;;;;8.13;2.90;;;;;;;28.66;46.24;100317.78;5122882;27;20047;-52
2023/09/25 08:47:42;;;;;;;6.10;1.60;;;;;;;28.82;46.08;100314.81;5107692;27;20046;-49
2023/09/25 08:50:09;;;;;;;15.43;3.70;;;;;;;29.02;46.10;100312.47;5120026;27;20051;-46
2023/09/25 08:52:36;;;;;;;7.30;1.38;;;;;;;29.38;45.36;100313.25;5121846;27;20082;-46
2023/09/25 08:55:04;;;;;;;7.60;2.13;;;;;;;29.63;44.98;100314.00;5124487;27;20050;-50
2023/09/25 08:57:31;;;;;;;7.72;1.92;;;;;;;29.89;44.55;100317.25;5131015;27;20039;-49
2023/09/25 09:00:04;;;;;;;10.20;1.80;;;;;;;29.96;44.00;100314.91;5119863;27;20461;-50
2023/09/25 09:02:30;;;;;;;9.65;1.73;;;;;;;30.07;43.64;100326.56;5119970;27;20047;-48
2023/09/25 09:04:58;;;;;;;10.55;1.88;;;;;;;30.15;43.62;100329.47;5119648;27;20487;-47
2023/09/25 09:07:25;;;;;;;8.90;1.77;;;;;;;30.26;42.70;100334.78;5119689;27;20071;-48
2023/09/25 09:09:52;;;;;;;11.07;2.47;;;;;;;30.32;42.47;100340.63;5116875;27;20056;-52
2023/09/25 09:12:19;;;;;;;16.75;2.92;;;;;;;30.27;42.68;100344.53;5116201;27;20056;-51
2023/09/25 09:14:46;;;;;;;6.50;1.50;;;;;;;30.45;42.58;100346.63;5116569;27;20039;-53
2023/09/25 09:17:16;;;;;;;7.15;1.52;;;;;;;30.55;41.83;100344.06;5121986;27;20058;-50
2023/09/25 09:22:21;;;;;;;7.40;1.98;;;;;;;30.62;41.03;100347.06;5055613;27;21397;-46
2023/09/25 09:24:51;;;;;;;10.13;2.25;;;;;;;30.55;41.63;100349.41;5011630;28;20156;-50
2023/09/25 09:27:20;;;;;;;10.52;1.80;;;;;;;30.70;42.41;100339.25;5018317;28;20049;-50
2023/09/25 09:29:52;;;;;;;8.10;2.45;;;;;;;30.92;41.66;100348.16;5017224;28;20092;-50
2023/09/25 09:32:18;;;;;;;8.40;1.90;;;;;;;31.12;41.31;100350.97;5013751;28;20064;-51
2023/09/25 09:34:47;;;;;;;7.60;1.52;;;;;;;31.20;40.55;100355.66;5012117;28;20049;-52
2023/09/25 09:37:14;;;;;;;7.72;2.83;;;;;;;31.35;40.78;100354.38;5011376;28;20499;-49
2023/09/25 09:39:45;;;;;;;15.13;1.83;;;;;;;31.64;40.83;100361.69;5011511;28;20082;-49
2023/09/25 09:42:14;;;;;;;8.50;2.17;;;;;;;31.76;40.10;100357.09;5011395;28;20172;-46
2023/09/25 09:44:43;;;;;;;9.75;1.95;;;;;;;31.72;39.35;100360.16;5017763;28;20160;-53
2023/09/25 09:47:10;;;;;;;4.85;1.75;;;;;;;31.65;39.73;100357.19;5007842;28;20052;-52
2023/09/25 09:49:39;;;;;;;8.35;3.22;;;;;;;31.58;40.19;100354.22;5007806;28;20045;-52
2023/09/25 09:52:06;;;;;;;;;;;;;;;31.75;39.66;100350.06;5013869;28;20053;-52
2023/09/25 09:54:38;;;;;;;8.15;1.25;;;;;;;31.33;39.95;100350.97;5008347;28;19928;-54
2023/09/25 09:57:07;;;;;;;6.63;1.23;;;;;;;30.72;40.21;100353.34;5012298;28;20052;-46
2023/09/25 09:59:34;;;;;;;7.13;2.10;;;;;;;30.33;40.25;100358.34;4993171;28;20136;-52
2023/09/25 10:02:03;;;;;;;6.25;2.22;;;;;;;30.22;40.21;100362.72;5010244;28;20246;-52
2023/09/25 10:04:31;;;;;;;5.70;1.48;;;;;;;29.99;40.55;100368.06;5007542;28;20046;-51
2023/09/25 10:06:59;;;;;;;9.02;1.48;;;;;;;29.80;40.62;100366.03;5008821;28;20057;-51
2023/09/25 10:09:27;;;;;;;11.77;2.38;;;;;;;29.70;40.74;100357.06;5008097;28;20496;-52
2023/09/25 10:11:55;;;;;;;10.32;2.70;;;;;;;29.53;41.49;100350.34;5005708;28;20052;-51
2023/09/25 10:14:23;;;;;;;5.07;1.67;;;;;;;29.57;42.48;100341.16;5005803;28;20076;-52
2023/09/25 10:19:52;;;;;;;9.73;3.50;;;;;;;29.25;40.48;100346.19;5057400;27;20398;-52
2023/09/25 10:22:22;;;;;;;7.80;2.67;;;;;;;29.08;42.16;100358.16;5025829;28;20049;-50
2023/09/25 10:25:10;;;;;;;7.43;3.28;;;;;;;29.03;41.94;100359.47;5017216;28;20057;-54
2023/09/25 10:27:36;;;;;;;7.93;3.22;;;;;;;29.01;42.18;100372.97;5012205;28;20053;-50
2023/09/25 10:32:51;;;;;;;7.03;1.83;;;;;;;29.08;42.70;100368.00;5051559;27;20417;-50
2023/09/25 10:35:38;;;;;;;7.03;2.88;;;;;;;29.29;42.54;100368.16;5036706;28;20113;-55
2023/09/25 10:38:10;;;;;;;7.78;1.50;;;;;;;29.39;41.39;100365.63;5031822;28;20057;-57
2023/09/25 10:41:00;;;;;;;7.10;1.90;;;;;;;29.46;42.32;100366.88;5029799;28;20053;-49
2023/09/25 10:43:26;;;;;;;7.07;1.90;;;;;;;29.33;41.83;100366.97;5012736;28;20089;-55
2023/09/25 10:45:53;;;;;;;8.75;1.65;;;;;;;29.28;41.62;100368.28;5013054;28;20057;-52
2023/09/25 10:48:23;;;;;;;7.68;1.73;;;;;;;29.10;41.28;100376.72;5030011;28;20046;-51
2023/09/25 10:50:49;;;;;;;6.78;1.52;;;;;;;28.86;42.08;100377.59;5029649;28;20055;-56
2023/09/25 10:53:17;;;;;;;6.50;1.75;;;;;;;28.67;42.14;100378.97;5032627;28;20118;-54
2023/09/25 10:55:49;;;;;;;6.50;1.58;;;;;;;28.64;42.63;100383.69;5027405;28;20063;-55
2023/09/25 10:58:17;;;;;;;5.10;0.95;;;;;;;28.72;42.93;100390.16;5010792;28;20053;-55
2023/09/25 11:00:50;;;;;;;5.22;1.30;;;;;;;28.73;41.36;100389.16;5030550;28;20058;-54
2023/09/25 11:03:17;;;;;;;9.35;1.60;;;;;;;28.49;41.75;100373.19;5033184;28;20140;-56
2023/09/25 11:05:45;;;;;;;7.88;1.48;;;;;;;28.28;42.47;100375.59;5035494;28;20053;-55
2023/09/25 11:08:14;;;;;;;9.82;1.92;;;;;;;28.15;42.18;100387.13;5058925;28;20057;-53
2023/09/25 11:10:41;;;;;;;;;;;;;;;28.02;43.18;100386.28;5030448;28;20065;-55
2023/09/25 11:13:09;;;;;;;7.35;1.88;;;;;;;28.08;43.31;100392.03;5037729;28;20341;-56
2023/09/25 11:15:38;;;;;;;5.70;1.33;;;;;;;28.05;42.23;100389.59;5029279;28;20061;-54
2023/09/25 11:18:10;;;;;;;5.25;1.50;;;;;;;27.95;42.39;100386.75;5059617;28;20133;-49
2023/09/25 11:20:38;;;;;;;7.53;1.80;;;;;;;28.00;42.91;100393.53;5046764;28;20053;-52
2023/09/25 11:28:25;;;;;;;5.68;2.15;;;;;;;28.01;42.29;100389.91;5039889;28;20400;-50
2023/09/25 11:30:52;;;;;;;10.00;1.67;;;;;;;28.14;42.94;100401.41;5037208;28;20086;-52
2023/09/25 11:33:22;;;;;;;6.47;1.85;;;;;;;28.21;42.17;100402.66;5051632;28;20068;-48
2023/09/25 11:35:52;;;;;;;12.38;2.40;;;;;;;28.26;42.42;100407.63;5055072;28;21091;-50
2023/09/25 11:38:23;;;;;;;6.20;1.63;;;;;;;28.24;42.49;100406.91;5051091;28;20037;-54
2023/09/25 11:40:52;;;;;;;7.18;1.88;;;;;;;28.14;42.10;100406.72;5050466;28;20670;-54
2023/09/25 11:43:19;;;;;;;6.93;1.95;;;;;;;28.14;42.71;100401.41;5044089;28;20055;-55